createdAt,value
2022-10-18T00:04:36.689Z,64.80
2022-10-18T00:09:39.333Z,116.47
2022-10-18T00:14:42.185Z,65.40
2022-10-18T00:19:45.102Z,124.78
2022-10-18T00:24:47.990Z,63.90
2022-10-18T00:29:53.225Z,74.03
2022-10-18T00:34:56.804Z,90.63
2022-10-18T00:39:59.823Z,108.22
2022-10-18T00:45:25.123Z,84.43
2022-10-18T00:55:32.945Z,230.00
2022-10-18T01:05:46.760Z,83.90
2022-10-18T01:11:11.435Z,63.85
2022-10-18T01:16:39.020Z,69.82
2022-10-18T01:21:50.519Z,90.68
2022-10-18T01:27:11.100Z,80.95
2022-10-18T01:32:18.599Z,165.57
2022-10-18T01:37:21.984Z,107.35
2022-10-18T01:42:25.040Z,66.63
2022-10-18T01:47:28.453Z,114.82
2022-10-18T01:52:31.574Z,113.40
2022-10-18T01:58:02.494Z,63.97
2022-10-18T02:03:24.162Z,84.70
2022-10-18T02:08:53.140Z,76.53
2022-10-18T02:14:07.761Z,63.22
2022-10-18T02:19:16.625Z,63.25
2022-10-18T02:24:22.086Z,78.82
2022-10-18T02:29:25.209Z,150.90
2022-10-18T02:34:41.641Z,81.43
2022-10-18T02:39:48.261Z,83.20
2022-10-18T02:44:50.730Z,66.68
2022-10-18T02:50:15.421Z,51.58
2022-10-18T02:55:18.186Z,39.80
2022-10-18T03:00:20.813Z,45.10
2022-10-18T03:05:24.621Z,33.87
2022-10-18T03:10:27.107Z,44.65
2022-10-18T03:15:29.673Z,28.60
2022-10-18T03:20:33.227Z,30.48
2022-10-18T03:25:35.787Z,24.80
2022-10-18T03:30:41.498Z,25.58
2022-10-18T03:35:44.020Z,25.33
2022-10-18T03:40:46.649Z,26.27
2022-10-18T03:45:50.509Z,22.25
2022-10-18T03:50:53.684Z,15.70
2022-10-18T03:55:56.627Z,16.42
2022-10-18T04:00:59.272Z,15.88
2022-10-18T04:06:03.737Z,15.77
2022-10-18T04:11:08.583Z,12.80
2022-10-18T04:16:11.142Z,35.63
2022-10-18T04:21:13.979Z,12.02
2022-10-18T04:26:17.315Z,12.32
2022-10-18T04:31:19.902Z,12.52
2022-10-18T04:36:22.569Z,38.88
2022-10-18T04:41:26.645Z,17.00
2022-10-18T04:46:29.163Z,27.47
2022-10-18T04:51:31.757Z,10.95
2022-10-18T04:56:34.354Z,13.60
2022-10-18T05:01:37.015Z,20.30
2022-10-18T05:06:39.607Z,14.00
2022-10-18T05:11:42.460Z,14.80
2022-10-18T05:16:45.178Z,14.27
2022-10-18T05:21:47.830Z,16.58
2022-10-18T05:26:50.400Z,35.10
2022-10-18T05:31:53.088Z,12.77
2022-10-18T05:36:55.750Z,15.95
2022-10-18T05:41:58.624Z,34.50
2022-10-18T05:47:01.158Z,31.60
2022-10-18T05:52:04.131Z,35.63
2022-10-18T05:57:07.450Z,45.70
2022-10-18T06:02:11.795Z,31.58
2022-10-18T06:07:14.386Z,18.85
2022-10-18T06:12:17.075Z,23.75
2022-10-18T06:17:19.627Z,44.33
2022-10-18T06:22:22.467Z,76.05
2022-10-18T06:27:25.070Z,24.55
2022-10-18T06:32:27.697Z,15.32
2022-10-18T06:37:30.990Z,22.40
2022-10-18T06:42:34.669Z,20.45
2022-10-18T06:47:37.413Z,57.40
2022-10-18T06:52:41.595Z,67.80
2022-10-18T06:57:44.272Z,90.60
2022-10-18T07:02:46.798Z,15.13
2022-10-18T07:07:52.900Z,30.00
2022-10-18T07:13:13.625Z,79.00
2022-10-18T07:18:23.234Z,21.80
2022-10-18T07:28:54.161Z,66.93
2022-10-18T07:33:59.586Z,77.45
2022-10-18T07:39:02.209Z,60.95
2022-10-18T07:44:05.221Z,25.05
2022-10-18T07:49:07.793Z,39.33
2022-10-18T07:54:10.453Z,50.25
2022-10-18T07:59:13.692Z,28.42
2022-10-18T08:04:16.676Z,47.92
2022-10-18T08:09:19.452Z,46.90
2022-10-18T08:14:22.046Z,18.55
2022-10-18T08:19:26.065Z,38.33
2022-10-18T08:24:28.608Z,34.03
2022-10-18T08:29:32.156Z,38.20
2022-10-18T08:39:41.134Z,60.28
2022-10-18T08:44:46.381Z,40.88
2022-10-18T08:49:56.723Z,23.85
2022-10-18T08:55:02.145Z,23.85
2022-10-18T09:00:19.362Z,30.35
2022-10-18T09:05:29.923Z,28.00
2022-10-18T09:10:48.099Z,30.20
2022-10-18T09:16:06.297Z,31.45
2022-10-18T09:21:20.576Z,38.78
2022-10-18T09:26:40.243Z,38.05
2022-10-18T09:32:24.311Z,24.77
2022-10-18T09:37:29.824Z,26.25
2022-10-18T09:42:36.514Z,39.08
2022-10-18T09:47:47.561Z,30.70
2022-10-18T09:53:17.846Z,24.67
2022-10-18T09:58:21.025Z,46.53
2022-10-18T10:03:23.606Z,35.85
2022-10-18T10:08:33.420Z,21.25
2022-10-18T10:13:36.007Z,25.08
2022-10-18T10:18:39.684Z,23.42
2022-10-18T10:23:54.156Z,25.70
2022-10-18T10:28:57.007Z,24.95
2022-10-18T10:34:14.359Z,19.73
2022-10-18T10:39:19.355Z,31.95
2022-10-18T10:44:27.086Z,27.58
2022-10-18T10:49:41.036Z,21.02
2022-10-18T10:54:50.380Z,19.83
2022-10-18T10:59:56.461Z,26.45
2022-10-18T11:05:25.126Z,20.27
2022-10-18T11:10:31.225Z,19.50
2022-10-18T11:15:39.308Z,20.13
2022-10-18T11:20:57.540Z,16.00
2022-10-18T11:26:12.151Z,22.45
2022-10-18T11:31:48.515Z,10.40
2022-10-18T11:37:28.538Z,17.92
2022-10-18T11:42:39.841Z,7.35
2022-10-18T11:48:18.942Z,11.15
2022-10-18T11:53:51.967Z,10.73
2022-10-18T11:59:00.656Z,16.35
2022-10-18T12:04:17.877Z,14.82
2022-10-18T12:09:45.088Z,7.32
2022-10-18T12:15:21.802Z,9.25
2022-10-18T12:20:41.556Z,14.95
2022-10-18T12:25:49.556Z,8.30
2022-10-18T12:31:03.522Z,13.55
2022-10-18T12:36:06.149Z,9.52
2022-10-18T12:41:20.078Z,9.82
2022-10-18T12:46:22.881Z,8.82
2022-10-18T12:51:25.564Z,7.45
2022-10-18T12:56:28.287Z,21.88
2022-10-18T13:01:50.912Z,12.13
2022-10-18T13:06:57.116Z,11.30
2022-10-18T13:12:11.278Z,13.60
2022-10-18T13:17:36.027Z,12.05
2022-10-18T13:22:58.687Z,8.07
2022-10-18T13:28:32.527Z,14.05
2022-10-18T13:33:38.802Z,9.05
2022-10-18T13:38:51.257Z,12.82
2022-10-18T13:43:54.309Z,11.77
2022-10-18T13:49:33.692Z,10.70
2022-10-18T13:55:03.977Z,16.67
2022-10-18T14:00:48.147Z,10.38
2022-10-18T14:06:10.079Z,8.60
2022-10-18T14:11:15.493Z,8.77
2022-10-18T14:16:25.281Z,15.25
2022-10-18T14:21:34.559Z,17.25
2022-10-18T14:26:37.024Z,8.93
2022-10-18T14:31:39.736Z,16.08
2022-10-18T14:36:42.749Z,12.90
2022-10-18T14:41:51.613Z,13.57
2022-10-18T14:47:36.269Z,11.25
2022-10-18T14:52:38.891Z,13.85
2022-10-18T14:57:41.996Z,11.43
2022-10-18T15:02:44.653Z,15.27
2022-10-18T15:07:47.984Z,15.43
2022-10-18T15:13:08.597Z,11.48
2022-10-18T15:18:24.983Z,11.65
2022-10-18T15:23:31.400Z,8.05
2022-10-18T15:28:49.321Z,8.07
2022-10-18T15:33:54.234Z,13.05
2022-10-18T15:39:18.186Z,12.48
2022-10-18T15:44:47.073Z,8.85
2022-10-18T15:49:59.016Z,11.30
2022-10-18T15:55:02.900Z,9.32
2022-10-18T16:00:07.769Z,15.32
2022-10-18T16:05:20.903Z,7.22
2022-10-18T16:10:24.419Z,5.10
2022-10-18T16:15:27.412Z,7.38
2022-10-18T16:20:29.985Z,11.40
2022-10-18T16:25:32.627Z,17.85
2022-10-18T16:30:35.947Z,7.28
2022-10-18T16:35:38.921Z,9.10
2022-10-18T16:40:41.628Z,10.18
2022-10-18T16:45:44.284Z,9.45
2022-10-18T16:50:48.213Z,8.75
2022-10-18T16:55:59.325Z,8.00
2022-10-18T17:01:04.182Z,11.48
2022-10-18T17:06:30.518Z,8.57
2022-10-18T17:11:33.044Z,16.63
2022-10-18T17:16:37.093Z,12.63
2022-10-18T17:21:41.901Z,12.13
2022-10-18T17:26:44.526Z,13.27
2022-10-18T17:31:50.363Z,15.85
2022-10-18T17:36:53.047Z,12.15
2022-10-18T17:41:55.859Z,8.30
2022-10-18T17:46:59.985Z,12.15
2022-10-18T17:52:06.167Z,5.38
2022-10-18T17:57:09.890Z,13.23
2022-10-18T18:02:12.419Z,9.80
2022-10-18T18:07:14.999Z,11.95
2022-10-18T18:12:17.915Z,17.33
2022-10-18T18:17:28.706Z,14.70
2022-10-18T18:22:40.390Z,13.82
2022-10-18T18:27:45.275Z,19.38
2022-10-18T18:32:47.798Z,13.55
2022-10-18T18:37:51.560Z,9.55
2022-10-18T18:43:07.156Z,9.15
2022-10-18T18:48:19.026Z,13.80
2022-10-18T18:53:25.851Z,7.88
2022-10-18T18:58:29.771Z,8.90
2022-10-18T19:03:32.302Z,6.82
2022-10-18T19:08:36.862Z,12.20
2022-10-18T19:13:39.365Z,9.35
2022-10-18T19:18:42.097Z,6.00
2022-10-18T19:23:44.569Z,13.13
2022-10-18T19:28:47.442Z,9.50
2022-10-18T19:33:59.359Z,11.38
2022-10-18T19:39:23.120Z,17.20
2022-10-18T19:44:28.978Z,26.55
2022-10-18T19:49:32.032Z,15.38
2022-10-18T19:54:34.615Z,10.75
2022-10-18T19:59:37.588Z,10.45
2022-10-18T20:04:40.172Z,12.63
2022-10-18T20:09:42.827Z,12.02
2022-10-18T20:14:45.455Z,9.82
2022-10-18T20:19:49.808Z,13.70
2022-10-18T20:24:52.386Z,7.88
2022-10-18T20:29:54.963Z,6.85
2022-10-18T20:34:58.136Z,16.45
2022-10-18T20:40:00.934Z,13.93
2022-10-18T20:50:11.949Z,10.63
2022-10-18T20:55:14.529Z,10.57
2022-10-18T21:00:17.143Z,14.95
2022-10-18T21:05:19.611Z,8.27
2022-10-18T21:10:22.411Z,11.82
2022-10-18T21:15:24.958Z,12.18
2022-10-18T21:20:31.676Z,13.70
2022-10-18T21:25:35.223Z,11.25
2022-10-18T21:30:40.406Z,14.82
2022-10-18T21:35:42.975Z,10.52
2022-10-18T21:40:45.641Z,13.13
2022-10-18T21:45:48.961Z,8.32
2022-10-18T21:50:51.661Z,14.25
2022-10-18T21:55:54.167Z,9.05
2022-10-18T22:00:56.903Z,12.55
2022-10-18T22:06:07.560Z,7.85
2022-10-18T22:11:11.787Z,16.02
2022-10-18T22:16:15.788Z,11.73
2022-10-18T22:21:21.839Z,18.17
2022-10-18T22:26:47.363Z,9.30
2022-10-18T22:31:52.266Z,8.57
2022-10-18T22:36:57.160Z,12.65
2022-10-18T22:41:59.874Z,9.20
2022-10-18T22:47:03.213Z,10.30
2022-10-18T22:52:05.886Z,10.18
2022-10-18T22:57:09.589Z,9.63
2022-10-18T23:02:12.179Z,6.50
2022-10-18T23:07:14.706Z,13.00
2022-10-18T23:12:17.287Z,14.13
2022-10-18T23:17:19.780Z,13.13
2022-10-18T23:22:22.351Z,11.13
2022-10-18T23:27:24.905Z,6.55
2022-10-18T23:32:28.758Z,8.85
2022-10-18T23:37:31.503Z,7.65
2022-10-18T23:42:35.083Z,15.15
2022-10-18T23:47:37.630Z,9.32
2022-10-18T23:52:40.757Z,13.40
2022-10-18T23:57:43.218Z,9.35
